Terminal Aerodrome Forecast
Issued by NWS Flagstaff, AZ

Home | Current Version | Previous Version | Text Only | Print | Product List | Glossary On
Versions: 1 2 3 4 5 6 7 8 9 10 11 12 13 14 15 16 17 18 19 20 21 22 23 24 25 26 27 28 29 30 31 32 33 34
000
FTUS45 KFGZ 211342 AAC
TAFINW
TAF AMD
KINW 211342Z 2114/2212 24030G45KT P6SM SCT250
      TEMPO 2114/2117 3SM BLDU SCT004
     FM220100 26016G24KT P6SM SCT030 BKN060
     FM220900 29011KT P6SM BKN050=

USA.gov is the U.S. government's official web portal to all federal, state and local government web resources and services.